createdAt,value
2023-05-30T00:00:50.489Z,12.64
2023-05-30T00:06:06.724Z,12.64
2023-05-30T00:11:10.934Z,12.61
2023-05-30T00:16:15.376Z,12.63
2023-05-30T00:21:19.108Z,12.65
2023-05-30T00:26:22.119Z,12.58
2023-05-30T00:31:25.286Z,12.50
2023-05-30T00:36:28.336Z,12.45
2023-05-30T00:41:31.303Z,12.37
2023-05-30T00:46:34.216Z,12.31
2023-05-30T00:51:37.444Z,12.23
2023-05-30T00:56:40.298Z,12.19
2023-05-30T01:01:44.606Z,12.16
2023-05-30T01:06:47.943Z,12.10
2023-05-30T01:12:06.062Z,12.09
2023-05-30T01:17:19.452Z,12.11
2023-05-30T01:22:34.376Z,12.05
2023-05-30T01:28:06.072Z,11.93
2023-05-30T01:33:10.003Z,11.80
2023-05-30T01:38:14.002Z,11.73
2023-05-30T01:43:50.440Z,11.66
2023-05-30T01:49:18.301Z,11.61
2023-05-30T01:54:22.849Z,11.59
2023-05-30T01:59:27.383Z,11.59
2023-05-30T02:04:31.623Z,11.61
2023-05-30T02:09:34.417Z,11.63
2023-05-30T02:14:37.650Z,11.56
2023-05-30T02:19:40.697Z,11.46
2023-05-30T02:24:43.482Z,11.39
2023-05-30T02:29:46.211Z,11.29
2023-05-30T02:34:49.185Z,11.26
2023-05-30T02:39:51.905Z,11.23
2023-05-30T02:44:54.745Z,11.21
2023-05-30T02:49:57.596Z,11.20
2023-05-30T02:55:00.381Z,11.19
2023-05-30T03:00:03.718Z,11.15
2023-05-30T03:05:07.367Z,11.13
2023-05-30T03:10:10.583Z,11.11
2023-05-30T03:15:13.513Z,11.10
2023-05-30T03:20:17.335Z,11.04
2023-05-30T03:25:21.351Z,11.03
2023-05-30T03:30:27.819Z,11.06
2023-05-30T03:35:31.055Z,11.03
2023-05-30T03:40:34.687Z,11.02
2023-05-30T03:45:37.417Z,11.12
2023-05-30T03:50:40.134Z,11.26
2023-05-30T03:55:42.894Z,11.40
2023-05-30T04:00:45.639Z,11.58
2023-05-30T04:05:50.546Z,11.59
2023-05-30T04:10:53.805Z,11.54
2023-05-30T04:15:56.605Z,11.63
2023-05-30T04:20:59.953Z,11.75
2023-05-30T04:26:02.987Z,11.93
2023-05-30T04:31:20.220Z,12.05
2023-05-30T04:36:24.324Z,12.06
2023-05-30T04:41:27.269Z,12.18
2023-05-30T04:46:30.906Z,12.21
2023-05-30T04:51:34.221Z,12.27
2023-05-30T04:56:37.111Z,12.40
2023-05-30T05:01:42.585Z,12.51
2023-05-30T05:06:45.507Z,12.62
2023-05-30T05:11:48.471Z,12.70
2023-05-30T05:16:51.222Z,12.77
2023-05-30T05:21:57.266Z,12.92
2023-05-30T05:27:00.172Z,13.14
2023-05-30T05:32:03.150Z,13.39
2023-05-30T05:37:06.797Z,13.64
2023-05-30T05:42:09.624Z,13.84
2023-05-30T05:47:12.433Z,13.89
2023-05-30T05:52:15.214Z,13.93
2023-05-30T05:57:17.983Z,14.13
2023-05-30T06:02:20.776Z,14.36
2023-05-30T06:07:24.629Z,14.58
2023-05-30T06:12:27.633Z,14.77
2023-05-30T06:17:31.228Z,14.98
2023-05-30T06:22:36.582Z,15.25
2023-05-30T06:27:39.384Z,15.53
2023-05-30T06:32:43.997Z,15.87
2023-05-30T06:37:47.015Z,16.27
2023-05-30T06:42:49.880Z,16.72
2023-05-30T06:47:52.738Z,17.18
2023-05-30T06:52:55.875Z,17.60
2023-05-30T06:57:58.700Z,17.91
2023-05-30T07:03:02.296Z,18.10
2023-05-30T07:08:05.420Z,18.32
2023-05-30T07:13:08.320Z,18.59
2023-05-30T07:18:11.223Z,18.75
2023-05-30T07:23:14.079Z,18.93
2023-05-30T07:28:18.409Z,18.98
2023-05-30T07:33:21.464Z,19.05
2023-05-30T07:38:24.225Z,19.21
2023-05-30T07:43:29.489Z,19.45
2023-05-30T07:48:33.105Z,19.83
2023-05-30T07:53:36.007Z,20.17
2023-05-30T07:58:38.752Z,20.44
2023-05-30T08:03:41.741Z,20.75
2023-05-30T08:08:44.899Z,20.88
2023-05-30T08:13:48.892Z,21.02
2023-05-30T08:18:52.512Z,21.30
2023-05-30T08:23:56.591Z,21.63
2023-05-30T08:29:01.061Z,21.75
2023-05-30T08:34:05.101Z,21.79
2023-05-30T08:39:14.933Z,21.89
2023-05-30T08:44:18.146Z,22.05
2023-05-30T08:49:26.036Z,22.19
2023-05-30T08:59:42.986Z,22.53
2023-05-30T09:04:47.178Z,22.78
2023-05-30T09:09:52.347Z,22.97
2023-05-30T09:14:55.168Z,23.17
2023-05-30T09:19:58.282Z,23.30
2023-05-30T09:25:05.068Z,23.33
2023-05-30T09:30:11.802Z,23.48
2023-05-30T09:35:14.869Z,23.73
2023-05-30T09:40:18.189Z,23.93
2023-05-30T09:45:25.679Z,24.17
2023-05-30T09:50:31.851Z,24.35
2023-05-30T09:55:34.605Z,24.43
2023-05-30T10:00:37.451Z,24.61
2023-05-30T10:05:40.368Z,24.78
2023-05-30T10:10:52.761Z,24.87
2023-05-30T10:15:55.992Z,24.89
2023-05-30T10:21:01.519Z,24.84
2023-05-30T10:26:06.426Z,24.99
2023-05-30T10:31:12.826Z,24.95
2023-05-30T10:36:21.270Z,24.92
2023-05-30T10:41:36.318Z,25.20
2023-05-30T10:47:19.315Z,25.49
2023-05-30T10:52:32.715Z,25.62
2023-05-30T10:57:36.286Z,25.78
2023-05-30T11:02:40.240Z,26.01
2023-05-30T11:07:44.532Z,26.18
2023-05-30T11:12:49.304Z,26.44
2023-05-30T11:17:53.652Z,26.46
2023-05-30T11:23:03.333Z,26.43
2023-05-30T11:28:07.308Z,26.48
2023-05-30T11:33:19.238Z,26.39
2023-05-30T11:39:33.064Z,26.46
2023-05-30T11:44:37.462Z,26.68
2023-05-30T11:49:42.700Z,26.77
2023-05-30T11:54:48.384Z,26.80
2023-05-30T11:59:51.316Z,26.80
2023-05-30T12:05:02.406Z,26.67
2023-05-30T12:10:06.022Z,26.57
2023-05-30T12:15:10.336Z,26.40
2023-05-30T12:20:18.436Z,26.64
2023-05-30T12:25:28.567Z,26.80
2023-05-30T12:30:36.011Z,26.99
2023-05-30T12:35:40.855Z,27.10
2023-05-30T12:40:52.083Z,27.07
2023-05-30T12:46:10.349Z,27.30
2023-05-30T12:51:15.994Z,27.45
2023-05-30T12:56:24.361Z,27.53
2023-05-30T13:01:31.280Z,27.53
2023-05-30T13:06:34.075Z,27.31
2023-05-30T13:11:37.010Z,27.12
2023-05-30T13:16:40.172Z,27.18
2023-05-30T13:21:44.830Z,27.21
2023-05-30T13:26:47.678Z,26.79
2023-05-30T13:31:50.640Z,26.64
2023-05-30T13:36:53.742Z,26.74
2023-05-30T13:41:56.774Z,26.83
2023-05-30T13:46:59.639Z,26.94
2023-05-30T13:52:05.200Z,26.90
2023-05-30T13:57:08.962Z,26.51
2023-05-30T14:02:11.777Z,26.21
2023-05-30T14:07:15.838Z,26.16
2023-05-30T14:12:18.784Z,26.44
2023-05-30T14:17:21.552Z,26.54
2023-05-30T14:22:24.277Z,26.38
2023-05-30T14:27:27.041Z,26.42
2023-05-30T14:32:30.314Z,26.44
2023-05-30T14:37:33.054Z,26.81
2023-05-30T14:42:36.176Z,26.94
2023-05-30T14:47:38.984Z,26.73
2023-05-30T14:52:41.731Z,26.32
2023-05-30T14:57:44.487Z,25.86
2023-05-30T15:02:47.348Z,25.95
2023-05-30T15:07:51.243Z,26.29
2023-05-30T15:12:54.072Z,26.26
2023-05-30T15:17:57.227Z,26.13
2023-05-30T15:23:00.022Z,26.14
2023-05-30T15:28:03.181Z,26.03
2023-05-30T15:33:06.094Z,26.06
2023-05-30T15:38:08.992Z,26.24
2023-05-30T15:43:12.323Z,26.12
2023-05-30T15:48:15.234Z,25.95
2023-05-30T15:53:17.939Z,26.01
2023-05-30T15:58:20.945Z,25.94
2023-05-30T16:03:23.718Z,25.71
2023-05-30T16:08:26.534Z,25.37
2023-05-30T16:13:29.294Z,25.06
2023-05-30T16:18:32.067Z,24.77
2023-05-30T16:23:35.038Z,24.55
2023-05-30T16:28:37.819Z,24.38
2023-05-30T16:33:40.612Z,24.24
2023-05-30T16:38:43.409Z,24.08
2023-05-30T16:43:48.035Z,23.90
2023-05-30T16:48:50.853Z,23.68
2023-05-30T16:53:56.272Z,23.45
2023-05-30T16:59:00.540Z,23.16
2023-05-30T17:04:03.677Z,22.86
2023-05-30T17:09:10.154Z,22.65
2023-05-30T17:14:14.691Z,22.55
2023-05-30T17:19:28.528Z,22.45
2023-05-30T17:24:32.179Z,22.17
2023-05-30T17:29:37.116Z,21.95
2023-05-30T17:34:39.901Z,21.77
2023-05-30T17:39:42.807Z,21.55
2023-05-30T17:44:45.571Z,21.39
2023-05-30T17:49:48.303Z,21.19
2023-05-30T17:54:53.713Z,21.00
2023-05-30T17:59:57.138Z,20.85
2023-05-30T18:05:03.066Z,20.67
2023-05-30T18:10:06.183Z,20.45
2023-05-30T18:15:10.286Z,20.19
2023-05-30T18:20:13.521Z,20.00
2023-05-30T18:25:16.344Z,19.86
2023-05-30T18:30:19.096Z,19.67
2023-05-30T18:35:21.955Z,19.55
2023-05-30T18:40:24.972Z,19.45
2023-05-30T18:45:27.791Z,19.34
2023-05-30T18:50:30.793Z,19.23
2023-05-30T18:55:33.754Z,19.08
2023-05-30T19:00:36.497Z,18.96
2023-05-30T19:05:40.236Z,18.79
2023-05-30T19:10:43.259Z,18.61
2023-05-30T19:15:46.118Z,18.41
2023-05-30T19:20:50.685Z,18.30
2023-05-30T19:25:54.483Z,18.15
2023-05-30T19:30:57.196Z,18.02
2023-05-30T19:36:00.181Z,17.85
2023-05-30T19:41:03.983Z,17.68
2023-05-30T19:46:08.534Z,17.60
2023-05-30T19:51:11.613Z,17.53
2023-05-30T19:56:14.389Z,17.42
2023-05-30T20:01:17.328Z,17.25
2023-05-30T20:06:20.739Z,17.09
2023-05-30T20:11:23.537Z,16.97
2023-05-30T20:16:26.502Z,16.89
2023-05-30T20:21:29.566Z,16.74
2023-05-30T20:26:33.201Z,16.64
2023-05-30T20:31:36.289Z,16.54
2023-05-30T20:36:39.135Z,16.46
2023-05-30T20:41:41.981Z,16.37
2023-05-30T20:46:45.230Z,16.25
2023-05-30T20:51:48.236Z,16.12
2023-05-30T20:56:51.097Z,15.99
2023-05-30T21:01:53.918Z,15.83
2023-05-30T21:06:56.782Z,15.71
2023-05-30T21:11:59.551Z,15.66
2023-05-30T21:17:02.435Z,15.57
2023-05-30T21:22:05.809Z,15.44
2023-05-30T21:27:08.607Z,15.31
2023-05-30T21:32:11.466Z,15.18
2023-05-30T21:37:14.333Z,15.05
2023-05-30T21:42:17.173Z,14.92
2023-05-30T21:47:19.904Z,14.81
2023-05-30T21:52:27.201Z,14.71
2023-05-30T21:57:30.331Z,14.61
2023-05-30T22:02:33.105Z,14.53
2023-05-30T22:07:35.950Z,14.44
2023-05-30T22:12:38.829Z,14.31
2023-05-30T22:17:41.597Z,14.21
2023-05-30T22:22:44.684Z,14.10
2023-05-30T22:27:47.609Z,14.00
2023-05-30T22:32:50.643Z,13.92
2023-05-30T22:37:53.439Z,13.84
2023-05-30T22:42:56.410Z,13.73
2023-05-30T22:47:59.484Z,13.62
2023-05-30T22:53:02.369Z,13.51
2023-05-30T22:58:05.127Z,13.45
2023-05-30T23:03:13.106Z,13.39
2023-05-30T23:08:16.088Z,13.32
2023-05-30T23:13:20.119Z,13.25
2023-05-30T23:18:22.849Z,13.17
2023-05-30T23:23:25.661Z,13.11
2023-05-30T23:28:28.488Z,13.04
2023-05-30T23:33:31.746Z,12.93
2023-05-30T23:38:34.574Z,12.83
2023-05-30T23:43:38.255Z,12.76
2023-05-30T23:48:41.084Z,12.69
2023-05-30T23:53:44.539Z,12.63
2023-05-30T23:58:47.340Z,12.56
